This is the latest recevied weather packets stored in our database for station/object DH1FR-13. If no packets are shown the sender has not sent any weather packets the latest 10 day(s).
| Time | Temp. | Humidity | Pressure | Rain* | Wind** | Luminosity | Snow |
|---|---|---|---|---|---|---|---|
| 1787758200 | 22.22° C | 73% | 1020.1 hPa | 0.25 mm | 0 m/s | - | - |
| 1787757600 | 21.67° C | 73% | 1020.5 hPa | 0.25 mm | 0 m/s | - | - |
| 1787757000 | 21.67° C | 73% | 1020.6 hPa | 0.25 mm | 0 m/s | - | - |
| 1787756400 | 21.67° C | 73% | 1020.4 hPa | 0.25 mm | 0 m/s | - | - |
| 1787755801 | 22.22° C | 72% | 1020.5 hPa | 0.25 mm | 0 m/s | - | - |
| 1787755200 | 21.67° C | 74% | 1020.4 hPa | 0.25 mm | 0 m/s | - | - |
| 1787754601 | 21.11° C | 76% | 1020.5 hPa | 0.25 mm | 0 m/s | - | - |
| 1787754001 | 21.11° C | 76% | 1020.8 hPa | 0.25 mm | 0 m/s | - | - |
| 1787753400 | 21.11° C | 76% | 1020.6 hPa | 0.25 mm | 0 m/s | - | - |
| 1787752801 | 21.67° C | 76% | 1020.7 hPa | 0.25 mm | 0 m/s | - | - |
| 1787752200 | 21.11° C | 76% | 1020.7 hPa | 0.25 mm | 0 m/s | - | - |
| 1787751600 | 22.22° C | 72% | 1020.5 hPa | 0.25 mm | 0 m/s | - | - |
| 1787751001 | 21.67° C | 74% | 1020.8 hPa | 0.25 mm | 0 m/s | - | - |
| 1787750401 | 21.67° C | 75% | 1020.8 hPa | 0.25 mm | 0 m/s | - | - |
| 1787749801 | 20.56° C | 78% | 1020.9 hPa | 0.25 mm | 0 m/s | - | - |
| 1787749200 | 20.56° C | 78% | 1021.1 hPa | 0.25 mm | 0 m/s | - | - |
| 1787748601 | 20.56° C | 78% | 1021 hPa | 0.25 mm | 0 m/s | - | - |
| 1787748000 | 21.11° C | 78% | 1021 hPa | 0.25 mm | 0 m/s | - | - |
| 1787747400 | 20.56° C | 79% | 1020.8 hPa | 0.25 mm | 0 m/s | - | - |
| 1787746801 | 20° C | 81% | 1021.1 hPa | 0.25 mm | 0 m/s | - | - |
| 1787746201 | 19.44° C | 82% | 1020.9 hPa | 0.25 mm | 0 m/s | - | - |
| 1787745601 | 19.44° C | 82% | 1021 hPa | 0.25 mm | 0 m/s | - | - |
| 1787745000 | 18.89° C | 82% | 1021.2 hPa | 0.25 mm | 0 m/s | - | - |
| 1787744400 | 18.89° C | 84% | 1021 hPa | 0.25 mm | 0 m/s | - | - |
| 1787743801 | 18.89° C | 83% | 1021.1 hPa | 0.25 mm | 0 m/s | - | - |
* Rain latest hour (hover to see other rain measurements)
** Current wind speed in m/s (hover to see current wind gust speed)